Time;durP1;ratioP1;P1;durP2;ratioP2;P2;SDS_P1;SDS_P2;PMS_P1;PMS_P2;Temp;Humidity;BMP_temperature;BMP_pressure;BME280_temperature;BME280_humidity;BME280_pressure;Samples;Min_cycle;Max_cycle;Signal;HPM_P1;HPM_P2
2023/04/08 00:00:05;;;;;;;14.77;13.57;;;;;;;4.35;84.66;92804.66;5109259;27;20231;-79
2023/04/08 00:02:30;;;;;;;15.70;14.50;;;;;;;4.28;85.69;92824.72;5111432;28;20219;-80
2023/04/08 00:04:56;;;;;;;14.37;13.23;;;;;;;3.91;84.86;92743.50;5109982;28;20224;-79
2023/04/08 00:07:21;;;;;;;15.17;13.73;;;;;;;4.38;84.76;92804.97;5109359;28;20196;-79
2023/04/08 00:09:47;;;;;;;15.47;14.17;;;;;;;4.71;82.85;92848.91;5115843;28;20223;-82
2023/04/08 00:12:12;;;;;;;14.13;13.03;;;;;;;4.45;83.52;92817.75;5117458;28;20180;-79
2023/04/08 00:14:37;;;;;;;14.63;13.50;;;;;;;4.22;84.10;92810.13;5116839;28;20227;-82
2023/04/08 00:17:03;;;;;;;14.40;13.30;;;;;;;4.62;84.33;92846.94;5117883;28;20195;-79
2023/04/08 00:19:28;;;;;;;14.53;13.27;;;;;;;4.54;84.29;92831.84;5115492;27;20194;-79
2023/04/08 00:21:53;;;;;;;14.40;12.90;;;;;;;4.42;85.42;92824.16;5116690;28;20188;-79
2023/04/08 00:24:19;;;;;;;14.83;13.57;;;;;;;4.39;85.42;92824.63;5116682;28;20175;-79
2023/04/08 00:26:44;;;;;;;14.93;13.33;;;;;;;4.40;85.80;92828.78;5116388;28;20191;-79
2023/04/08 00:29:10;;;;;;;13.70;12.60;;;;;;;4.42;85.59;92837.06;5116668;28;20192;-79
2023/04/08 00:31:35;;;;;;;13.37;12.37;;;;;;;4.26;86.30;92832.69;5116119;27;20246;-79
2023/04/08 00:34:01;;;;;;;15.90;14.60;;;;;;;4.23;85.65;92820.25;5116213;28;20199;-79
2023/04/08 00:36:27;;;;;;;15.53;14.13;;;;;;;4.18;86.22;92815.00;5116186;28;20250;-79
2023/04/08 00:38:52;;;;;;;14.83;13.37;;;;;;;4.31;86.91;92816.50;5114660;28;20187;-79
2023/04/08 00:41:18;;;;;;;13.83;12.73;;;;;;;4.52;85.87;92845.00;5115848;28;20215;-78
2023/04/08 00:43:43;;;;;;;15.43;13.07;;;;;;;4.31;86.61;92832.75;5116014;28;20191;-79
2023/04/08 00:46:09;;;;;;;15.20;13.90;;;;;;;4.47;87.43;92850.06;5116216;27;20254;-79
2023/04/08 00:48:35;;;;;;;16.17;14.70;;;;;;;4.45;87.68;92854.69;5117183;28;20247;-79
2023/04/08 00:51:01;;;;;;;16.20;14.63;;;;;;;4.44;87.17;92850.56;5115427;28;20262;-80
2023/04/08 00:53:26;;;;;;;15.83;14.47;;;;;;;4.52;86.69;92857.91;5116191;28;20175;-76
2023/04/08 00:55:51;;;;;;;15.03;13.53;;;;;;;4.37;86.80;92834.41;5115310;27;20224;-83
2023/04/08 00:58:17;;;;;;;15.03;13.60;;;;;;;4.32;87.40;92838.72;5117158;28;20194;-84
2023/04/08 01:00:56;;;;;;;15.80;14.47;;;;;;;4.20;87.59;92825.88;5115643;27;20239;-83
2023/04/08 01:03:37;;;;;;;16.20;14.50;;;;;;;4.42;87.23;92850.00;5115343;28;20199;-82
2023/04/08 01:06:15;;;;;;;21.77;17.20;;;;;;;4.42;86.85;92855.16;5113715;28;20234;-84
2023/04/08 01:08:42;;;;;;;19.37;16.73;;;;;;;4.39;87.47;92852.28;5114744;28;20183;-83
2023/04/08 01:11:11;;;;;;;19.63;17.50;;;;;;;4.40;88.14;92853.84;5115156;28;20261;-84
2023/04/08 01:13:39;;;;;;;23.60;19.30;;;;;;;4.38;87.64;92854.06;5115787;28;20194;-83
2023/04/08 01:16:08;;;;;;;25.23;18.57;;;;;;;4.29;86.84;92834.81;5115032;27;20299;-83
2023/04/08 01:18:35;;;;;;;23.00;19.50;;;;;;;4.54;86.71;92849.94;5114736;28;20188;-83
2023/04/08 01:21:02;;;;;;;20.63;18.43;;;;;;;4.39;85.82;92821.28;5109723;28;20253;-83
2023/04/08 01:23:36;;;;;;;21.07;17.97;;;;;;;4.78;84.58;92856.47;5111749;28;20180;-84
2023/04/08 01:26:02;;;;;;;27.73;19.13;;;;;;;4.67;85.17;92850.38;5112671;28;20246;-83
2023/04/08 01:28:30;;;;;;;20.13;18.13;;;;;;;4.54;84.80;92837.78;5112892;28;20183;-84
2023/04/08 01:30:58;;;;;;;19.53;17.43;;;;;;;4.58;84.92;92844.03;5111745;27;20215;-82
2023/04/08 01:33:24;;;;;;;19.47;17.47;;;;;;;4.36;84.79;92835.44;5111847;28;20250;-86
2023/04/08 01:35:51;;;;;;;20.13;18.00;;;;;;;4.47;85.08;92850.06;5111351;27;20295;-83
2023/04/08 01:38:19;;;;;;;20.07;18.03;;;;;;;4.58;84.68;92861.34;5112554;28;20195;-84
2023/04/08 01:40:46;;;;;;;18.33;16.60;;;;;;;4.53;85.31;92854.31;5111669;27;20269;-84
2023/04/08 01:43:16;;;;;;;19.30;17.40;;;;;;;4.55;85.04;92847.09;5111261;28;20211;-84
2023/04/08 01:45:46;;;;;;;18.63;16.63;;;;;;;4.57;84.31;92846.88;5109861;27;20231;-84
2023/04/08 01:48:13;;;;;;;18.00;16.00;;;;;;;4.65;84.43;92852.41;5110051;28;20262;-83
2023/04/08 01:50:43;;;;;;;17.47;15.87;;;;;;;4.58;84.47;92848.41;5109933;28;20232;-84
2023/04/08 01:53:09;;;;;;;16.33;15.03;;;;;;;4.55;84.17;92841.94;5111367;28;20184;-83
2023/04/08 01:55:37;;;;;;;15.33;14.00;;;;;;;4.12;85.29;92795.28;5111358;27;20224;-84
2023/04/08 01:58:06;;;;;;;16.23;14.73;;;;;;;4.45;84.46;92830.66;5109999;28;20199;-84
2023/04/08 02:00:33;;;;;;;15.23;13.97;;;;;;;4.40;86.45;92851.25;5111741;28;20257;-84
2023/04/08 02:03:01;;;;;;;14.63;13.30;;;;;;;4.35;85.19;92815.78;5111595;28;20184;-84
2023/04/08 02:05:27;;;;;;;14.80;13.70;;;;;;;4.38;84.81;92825.66;5110976;28;20231;-83
2023/04/08 02:07:52;;;;;;;13.37;12.13;;;;;;;4.22;84.75;92823.03;5113437;28;20195;-84
2023/04/08 02:10:17;;;;;;;13.53;12.43;;;;;;;4.30;84.74;92838.97;5110957;28;20224;-83
2023/04/08 02:12:45;;;;;;;14.13;13.03;;;;;;;4.49;85.27;92858.38;5111873;28;20207;-83
2023/04/08 02:15:11;;;;;;;14.10;13.10;;;;;;;4.49;84.95;92868.72;5109265;28;20223;-84
2023/04/08 02:17:49;;;;;;;13.37;12.40;;;;;;;4.51;84.32;92869.25;5111545;28;20194;-73
2023/04/08 02:20:17;;;;;;;16.27;14.87;;;;;;;4.50;84.15;92872.06;5110475;28;20231;-73
2023/04/08 02:23:01;;;;;;;18.63;16.80;;;;;;;4.35;83.39;92849.38;5110471;28;20196;-72
2023/04/08 02:25:29;;;;;;;18.07;16.23;;;;;;;4.30;82.69;92844.13;5110067;27;20242;-80
2023/04/08 02:27:56;;;;;;;18.33;16.53;;;;;;;4.32;82.38;92874.91;5108314;28;20176;-79
2023/04/08 02:30:24;;;;;;;19.23;17.17;;;;;;;4.26;82.48;92845.63;5109590;28;20774;-78
2023/04/08 02:32:51;;;;;;;16.43;15.13;;;;;;;4.62;82.37;92868.41;5109534;28;20263;-78
2023/04/08 02:35:17;;;;;;;16.37;14.87;;;;;;;4.45;82.97;92854.69;5109726;28;20231;-78
2023/04/08 02:37:46;;;;;;;16.20;14.50;;;;;;;4.52;83.04;92870.84;5109429;28;20193;-78
2023/04/08 02:40:41;;;;;;;16.43;14.77;;;;;;;4.41;84.32;92861.34;5107659;28;20259;-78
2023/04/08 02:43:06;;;;;;;15.90;14.60;;;;;;;4.25;84.98;92846.63;5106122;28;20202;-77
2023/04/08 02:45:43;;;;;;;18.47;16.80;;;;;;;4.44;83.74;92860.88;5109475;28;20228;-77
2023/04/08 02:48:09;;;;;;;18.20;16.50;;;;;;;4.39;83.79;92880.72;5108829;28;20191;-77
2023/04/08 02:50:35;;;;;;;17.90;16.20;;;;;;;4.44;84.50;92870.44;5107898;27;20221;-77
2023/04/08 02:53:00;;;;;;;20.73;17.90;;;;;;;4.53;84.31;92880.16;5108278;28;20221;-77
2023/04/08 02:55:26;;;;;;;19.63;17.77;;;;;;;4.32;85.01;92844.69;5108180;28;20733;-77
2023/04/08 02:57:51;;;;;;;18.40;16.70;;;;;;;4.54;85.67;92866.22;5110082;28;20214;-77
2023/04/08 03:00:17;;;;;;;23.47;17.80;;;;;;;4.53;85.46;92869.81;5109555;28;20986;-77
2023/04/08 03:02:42;;;;;;;19.93;17.43;;;;;;;4.36;84.83;92847.56;5108240;28;20203;-78
2023/04/08 03:05:08;;;;;;;19.90;18.00;;;;;;;4.48;85.66;92882.66;5110935;28;20270;-79
2023/04/08 03:07:34;;;;;;;20.17;18.13;;;;;;;4.43;85.32;92872.25;5108512;28;20244;-77
2023/04/08 03:09:59;;;;;;;20.13;18.07;;;;;;;4.47;85.49;92881.09;5108199;28;20236;-77
2023/04/08 03:12:28;;;;;;;21.43;18.47;;;;;;;4.54;86.07;92878.34;5109463;28;20188;-76
2023/04/08 03:14:53;;;;;;;22.27;18.73;;;;;;;4.38;85.94;92851.50;5107812;28;20239;-78
2023/04/08 03:17:19;;;;;;;23.17;19.67;;;;;;;4.57;86.02;92880.47;5109208;28;20184;-78
2023/04/08 03:19:44;;;;;;;19.97;17.83;;;;;;;4.41;86.29;92861.34;5109868;27;20230;-78
2023/04/08 03:22:12;;;;;;;20.53;18.43;;;;;;;4.38;86.67;92861.03;5108518;28;20301;-77
2023/04/08 03:24:37;;;;;;;19.40;17.37;;;;;;;4.35;87.48;92861.50;5110696;28;20256;-77
2023/04/08 03:27:03;;;;;;;20.60;17.50;;;;;;;4.28;87.38;92866.06;5109221;28;20216;-77
2023/04/08 03:29:28;;;;;;;20.40;17.10;;;;;;;4.42;87.01;92882.81;5108396;28;20203;-78
2023/04/08 03:31:54;;;;;;;20.70;18.43;;;;;;;4.48;86.39;92874.13;5109997;28;20219;-78
2023/04/08 03:34:19;;;;;;;18.23;16.43;;;;;;;4.48;86.33;92861.22;5109132;28;20216;-77
2023/04/08 03:36:45;;;;;;;20.00;18.10;;;;;;;4.43;87.42;92879.22;5109272;28;20203;-76
2023/04/08 03:39:10;;;;;;;18.67;16.87;;;;;;;3.98;87.71;92809.50;5109139;28;20199;-77
2023/04/08 03:41:35;;;;;;;20.40;18.40;;;;;;;4.46;87.38;92879.53;5107904;28;20220;-77
2023/04/08 03:44:01;;;;;;;25.70;19.97;;;;;;;4.35;87.35;92854.56;5108368;28;20192;-77
2023/04/08 03:46:26;;;;;;;21.53;19.33;;;;;;;4.52;87.37;92883.75;5109473;27;20228;-77
2023/04/08 03:48:52;;;;;;;21.23;18.33;;;;;;;4.42;87.52;92873.25;5108638;28;20195;-77
2023/04/08 03:51:17;;;;;;;21.50;18.87;;;;;;;4.38;87.80;92879.91;5108313;28;20238;-78
2023/04/08 03:53:43;;;;;;;23.20;19.63;;;;;;;4.18;87.75;92842.63;5108026;28;20564;-79
2023/04/08 03:56:08;;;;;;;29.77;20.77;;;;;;;4.17;87.63;92826.34;5108912;27;20240;-79
2023/04/08 03:58:33;;;;;;;27.27;21.80;;;;;;;4.45;86.47;92862.44;5108170;28;20188;-74
2023/04/08 04:00:59;;;;;;;23.67;20.43;;;;;;;4.51;86.40;92858.16;5107721;28;20220;-74
2023/04/08 04:03:25;;;;;;;23.60;20.23;;;;;;;4.54;86.69;92871.41;5107897;28;20188;-74
2023/04/08 04:05:50;;;;;;;24.63;20.93;;;;;;;4.30;86.72;92859.63;5108046;28;20322;-73
2023/04/08 04:08:15;;;;;;;21.67;19.33;;;;;;;4.37;87.10;92859.47;5109680;28;20234;-73
2023/04/08 04:10:41;;;;;;;29.60;21.93;;;;;;;4.43;86.98;92867.09;5108963;28;20228;-74
2023/04/08 04:13:06;;;;;;;31.57;23.00;;;;;;;4.43;86.85;92880.00;5108500;28;20199;-74
2023/04/08 04:15:32;;;;;;;27.77;21.50;;;;;;;4.31;86.65;92861.19;5107799;28;20234;-74
2023/04/08 04:17:57;;;;;;;27.40;21.00;;;;;;;4.42;86.96;92878.41;5110565;28;20218;-73
2023/04/08 04:20:24;;;;;;;23.07;19.93;;;;;;;4.33;87.54;92874.66;5108188;28;20226;-74
2023/04/08 04:22:50;;;;;;;28.70;22.87;;;;;;;4.30;87.41;92864.78;5107910;28;20219;-74
2023/04/08 04:25:15;;;;;;;25.30;22.13;;;;;;;4.26;88.66;92884.38;5107610;27;20240;-74
2023/04/08 04:27:41;;;;;;;22.57;19.50;;;;;;;4.35;87.93;92867.47;5109278;28;20182;-74
2023/04/08 04:30:08;;;;;;;25.40;20.83;;;;;;;4.29;89.01;92878.75;5106490;28;20236;-74
2023/04/08 04:32:33;;;;;;;22.47;19.97;;;;;;;4.40;88.52;92885.66;5108966;28;20164;-75
2023/04/08 04:34:59;;;;;;;23.07;18.17;;;;;;;4.28;88.55;92866.06;5105667;27;20238;-75
2023/04/08 04:37:25;;;;;;;18.43;16.63;;;;;;;4.39;87.67;92872.97;5109655;28;20192;-75
2023/04/08 04:39:50;;;;;;;20.37;18.27;;;;;;;4.31;87.73;92853.44;5108888;27;20270;-73
2023/04/08 04:42:16;;;;;;;20.40;17.83;;;;;;;4.05;88.12;92837.75;5108917;28;20192;-73
2023/04/08 04:44:41;;;;;;;20.10;18.00;;;;;;;4.42;87.90;92867.31;5105397;28;20334;-75
2023/04/08 04:47:06;;;;;;;22.97;17.83;;;;;;;4.54;86.93;92876.56;5106618;28;20188;-72
2023/04/08 04:49:32;;;;;;;19.83;17.70;;;;;;;4.43;86.28;92874.84;5105545;28;20188;-75
2023/04/08 04:51:57;;;;;;;21.70;19.60;;;;;;;4.64;86.64;92892.22;5084407;28;21684;-74
2023/04/08 04:54:22;;;;;;;20.67;18.57;;;;;;;4.40;85.96;92877.91;5087524;28;20274;-73
2023/04/08 04:56:48;;;;;;;28.33;21.53;;;;;;;4.37;85.58;92896.44;5091185;28;20213;-69
2023/04/08 04:59:13;;;;;;;23.27;20.93;;;;;;;4.54;83.80;92875.78;5090684;28;20181;-71
2023/04/08 05:01:39;;;;;;;26.27;20.17;;;;;;;4.76;84.08;92905.09;5109189;28;20250;-73
2023/04/08 05:04:05;;;;;;;34.30;23.60;;;;;;;4.85;82.85;92907.03;5111942;28;20235;-72
2023/04/08 05:06:31;;;;;;;24.30;21.37;;;;;;;4.70;83.27;92865.41;5111615;28;20224;-72
2023/04/08 05:08:56;;;;;;;30.83;22.37;;;;;;;4.95;84.02;92904.59;5111945;28;20190;-68
2023/04/08 05:11:22;;;;;;;28.67;21.17;;;;;;;4.78;85.36;92888.28;5093702;28;20217;-73
2023/04/08 05:13:47;;;;;;;24.30;21.70;;;;;;;5.00;85.04;92892.75;5092388;28;20219;-74
2023/04/08 05:16:12;;;;;;;26.83;21.70;;;;;;;5.12;85.21;92896.03;5107657;28;20306;-74
2023/04/08 05:18:38;;;;;;;25.40;22.77;;;;;;;5.26;82.72;92894.66;5111631;28;20191;-77
2023/04/08 05:21:03;;;;;;;27.20;23.93;;;;;;;5.11;81.63;92899.63;5111704;27;20220;-70
2023/04/08 05:23:29;;;;;;;27.87;23.63;;;;;;;5.28;82.02;92895.19;5110588;28;20191;-69
2023/04/08 05:25:55;;;;;;;31.60;25.13;;;;;;;5.43;81.59;92905.75;5111058;28;20228;-71
2023/04/08 05:28:20;;;;;;;24.57;21.60;;;;;;;5.61;81.78;92908.03;5110280;28;20200;-72
2023/04/08 05:30:50;;;;;;;29.93;24.23;;;;;;;5.30;83.86;92893.16;5109021;28;20215;-72
2023/04/08 05:33:15;;;;;;;33.70;25.37;;;;;;;5.30;79.73;92891.34;5110019;28;20182;-73
2023/04/08 05:35:41;;;;;;;29.40;24.47;;;;;;;5.38;77.90;92878.00;5111893;27;20247;-72
2023/04/08 05:38:06;;;;;;;29.77;25.10;;;;;;;5.94;77.20;92906.16;5111249;28;20191;-72
2023/04/08 05:40:32;;;;;;;27.43;23.17;;;;;;;6.12;76.02;92879.09;5109283;28;20257;-78
2023/04/08 05:42:57;;;;;;;32.43;23.57;;;;;;;6.36;82.09;92857.03;5112495;28;20252;-75
2023/04/08 05:45:23;;;;;;;27.13;22.77;;;;;;;6.45;75.68;92915.22;5110990;27;20219;-79
2023/04/08 05:47:48;;;;;;;29.73;24.30;;;;;;;6.30;75.49;92876.19;5111837;28;20240;-78
2023/04/08 05:50:13;;;;;;;31.43;24.50;;;;;;;6.38;76.33;92909.44;5111963;27;20255;-78
2023/04/08 05:52:46;;;;;;;30.50;22.97;;;;;;;6.14;76.38;92845.97;5112134;28;20191;-79
2023/04/08 05:55:12;;;;;;;25.90;22.37;;;;;;;6.46;75.13;92870.88;5111777;27;20256;-77
2023/04/08 05:57:38;;;;;;;29.47;21.73;;;;;;;6.74;73.96;92897.56;5111957;28;20181;-78
2023/04/08 06:00:05;;;;;;;23.50;21.00;;;;;;;6.85;74.29;92915.53;5111063;28;20230;-78
2023/04/08 06:02:30;;;;;;;24.20;21.63;;;;;;;6.79;74.18;92895.78;5111822;28;20180;-78
2023/04/08 06:04:56;;;;;;;25.27;21.13;;;;;;;6.56;74.22;92865.00;5111328;28;20702;-78
2023/04/08 06:07:21;;;;;;;23.00;20.50;;;;;;;6.75;75.32;92906.91;5111048;28;20751;-78
2023/04/08 06:09:46;;;;;;;21.67;18.70;;;;;;;6.50;75.12;92891.91;5111156;28;20231;-78
2023/04/08 06:12:12;;;;;;;26.03;20.03;;;;;;;6.19;75.94;92838.22;5112087;28;20184;-81
2023/04/08 06:14:37;;;;;;;21.03;18.73;;;;;;;6.51;75.67;92893.47;5111616;28;20228;-79
2023/04/08 06:17:03;;;;;;;25.33;20.17;;;;;;;5.57;78.60;92881.06;5110801;28;20202;-79
2023/04/08 06:19:28;;;;;;;23.23;20.83;;;;;;;5.75;77.76;92854.84;5110953;27;20188;-78
2023/04/08 06:21:57;;;;;;;22.00;19.80;;;;;;;5.36;78.48;92845.59;5110198;28;20242;-77
2023/04/08 06:24:24;;;;;;;27.30;21.67;;;;;;;6.04;77.70;92880.31;5111305;28;20195;-78
2023/04/08 06:26:51;;;;;;;22.77;19.90;;;;;;;6.51;77.09;92894.25;5110113;28;20184;-78
2023/04/08 06:29:16;;;;;;;26.30;20.17;;;;;;;7.20;72.69;92869.06;5110947;28;20219;-78
2023/04/08 06:31:42;;;;;;;23.57;20.03;;;;;;;8.13;71.22;92881.94;5111222;28;20230;-78
2023/04/08 06:34:07;;;;;;;20.63;17.77;;;;;;;8.39;68.63;92882.00;5111708;28;20196;-78
2023/04/08 06:36:32;;;;;;;21.60;19.17;;;;;;;8.48;68.11;92891.66;5110895;28;20262;-78
2023/04/08 06:38:58;;;;;;;23.70;18.23;;;;;;;7.70;69.57;92903.09;5109540;28;20182;-76
2023/04/08 06:41:23;;;;;;;20.50;18.07;;;;;;;6.66;72.35;92852.13;5110461;28;20236;-77
2023/04/08 06:43:49;;;;;;;20.03;17.93;;;;;;;7.33;71.11;92899.78;5112136;28;20317;-78
2023/04/08 06:46:14;;;;;;;19.23;17.20;;;;;;;7.98;70.32;92910.47;5110170;28;20342;-78
2023/04/08 06:48:39;;;;;;;20.10;16.73;;;;;;;8.22;68.38;92916.00;5111867;28;20243;-78
2023/04/08 06:51:06;;;;;;;20.13;18.03;;;;;;;7.97;68.83;92892.50;5110436;28;20230;-76
2023/04/08 06:53:32;;;;;;;18.20;16.67;;;;;;;7.53;68.49;92808.19;5112254;28;20184;-78
2023/04/08 06:55:58;;;;;;;20.60;16.63;;;;;;;7.80;69.67;92861.53;5110023;28;20254;-78
2023/04/08 06:58:23;;;;;;;19.07;17.07;;;;;;;8.12;68.90;92895.94;5110746;28;20191;-78
2023/04/08 07:00:49;;;;;;;18.40;16.70;;;;;;;7.91;68.75;92859.75;5110469;28;20248;-79
2023/04/08 07:03:14;;;;;;;18.90;17.20;;;;;;;8.00;68.68;92895.41;5110166;28;20238;-78
2023/04/08 07:05:41;;;;;;;21.07;18.90;;;;;;;8.05;69.08;92905.03;5110459;27;20215;-78
2023/04/08 07:08:07;;;;;;;20.57;17.70;;;;;;;8.17;68.56;92924.56;5110948;28;20192;-79
2023/04/08 07:10:34;;;;;;;19.83;18.03;;;;;;;8.36;69.03;92921.53;5110051;28;20287;-78
2023/04/08 07:13:00;;;;;;;21.63;18.83;;;;;;;8.62;67.87;92921.34;5110727;28;20180;-78
2023/04/08 07:15:25;;;;;;;19.43;17.53;;;;;;;8.49;67.71;92927.03;5108443;28;20960;-74
2023/04/08 07:17:51;;;;;;;19.40;16.87;;;;;;;8.66;66.95;92926.78;5110351;28;20249;-71
2023/04/08 07:20:17;;;;;;;18.73;16.93;;;;;;;8.76;66.60;92911.97;5109603;27;20344;-72
2023/04/08 07:22:42;;;;;;;18.90;16.87;;;;;;;8.75;66.08;92930.44;5108109;28;20200;-71
2023/04/08 07:25:08;;;;;;;19.23;17.27;;;;;;;8.50;67.31;92901.81;5108497;28;20293;-74
2023/04/08 07:27:34;;;;;;;20.47;18.23;;;;;;;8.25;67.06;92801.09;5110396;28;20209;-73
2023/04/08 07:30:00;;;;;;;18.57;16.87;;;;;;;8.96;66.84;92895.56;5109021;27;20283;-79
2023/04/08 07:32:26;;;;;;;20.93;18.87;;;;;;;9.83;64.23;92922.00;5109777;28;20182;-77
2023/04/08 07:34:51;;;;;;;20.00;17.87;;;;;;;10.22;62.80;92941.19;5109400;27;20223;-76
2023/04/08 07:37:17;;;;;;;18.97;17.13;;;;;;;10.17;61.00;92941.19;5109430;28;20240;-76
2023/04/08 07:39:42;;;;;;;20.17;18.27;;;;;;;9.93;61.88;92929.00;5109137;28;20224;-75
2023/04/08 07:42:08;;;;;;;19.00;17.10;;;;;;;10.05;61.88;92939.91;5109802;28;20176;-75
2023/04/08 07:44:33;;;;;;;18.10;16.47;;;;;;;9.64;62.21;92924.38;5109024;28;20210;-76
2023/04/08 07:46:59;;;;;;;18.90;17.00;;;;;;;9.60;63.37;92940.81;5109872;28;20192;-75
2023/04/08 07:49:24;;;;;;;19.83;18.07;;;;;;;9.69;63.40;92941.84;5109618;28;20203;-76
2023/04/08 07:51:50;;;;;;;19.20;17.30;;;;;;;9.78;61.79;92930.63;5109451;28;20187;-76
2023/04/08 07:54:16;;;;;;;18.47;16.63;;;;;;;9.50;62.59;92952.03;5109065;28;20188;-75
2023/04/08 07:56:43;;;;;;;19.37;17.57;;;;;;;9.14;62.55;92908.03;5109570;27;20232;-76
2023/04/08 07:59:09;;;;;;;18.27;16.37;;;;;;;9.17;62.29;92929.16;5110383;28;20195;-75
2023/04/08 08:01:35;;;;;;;16.77;15.07;;;;;;;9.73;62.14;92963.72;5109460;27;20224;-76
2023/04/08 08:04:00;;;;;;;20.67;16.37;;;;;;;9.86;61.87;92968.38;5109816;28;20253;-76
2023/04/08 08:06:31;;;;;;;20.40;17.73;;;;;;;10.19;59.88;92973.03;5110313;28;20225;-76
2023/04/08 08:08:56;;;;;;;19.00;17.30;;;;;;;10.51;58.59;92970.78;5110219;28;20198;-76
2023/04/08 08:11:22;;;;;;;22.87;17.07;;;;;;;10.59;57.49;92917.22;5109004;28;20224;-77
2023/04/08 08:13:47;;;;;;;18.77;16.97;;;;;;;11.17;55.95;92971.94;5110694;28;20188;-77
2023/04/08 08:16:13;;;;;;;19.00;17.10;;;;;;;10.89;56.04;92914.41;5109082;28;20220;-77
2023/04/08 08:18:39;;;;;;;18.50;16.87;;;;;;;10.58;56.53;92973.09;5108390;28;20184;-77
2023/04/08 08:21:05;;;;;;;17.73;16.13;;;;;;;10.37;57.25;92980.25;5109219;28;20223;-76
2023/04/08 08:23:31;;;;;;;18.90;16.23;;;;;;;10.10;58.56;92964.16;5108662;28;20199;-76
2023/04/08 08:26:11;;;;;;;18.47;16.57;;;;;;;10.45;57.61;92960.63;5108744;28;20220;-76
2023/04/08 08:28:39;;;;;;;18.40;16.60;;;;;;;10.74;57.52;92979.81;5109632;28;20172;-76
2023/04/08 08:31:05;;;;;;;19.63;17.67;;;;;;;10.61;56.25;92959.50;5112948;27;20223;-76
2023/04/08 08:33:31;;;;;;;18.23;16.53;;;;;;;9.44;58.40;92940.06;5113879;28;20188;-76
2023/04/08 08:35:57;;;;;;;18.20;16.53;;;;;;;10.72;57.06;92987.13;5112531;27;20257;-77
2023/04/08 08:38:23;;;;;;;19.50;17.57;;;;;;;10.81;57.32;92962.00;5113274;28;20188;-75
2023/04/08 08:40:59;;;;;;;20.73;18.63;;;;;;;11.40;56.03;92993.97;5112892;28;20224;-74
2023/04/08 08:43:26;;;;;;;19.03;17.43;;;;;;;10.62;58.11;92985.34;5113586;28;20188;-76
2023/04/08 08:45:52;;;;;;;19.33;16.83;;;;;;;10.88;57.20;92971.09;5113585;28;20246;-76
2023/04/08 08:48:17;;;;;;;19.70;17.70;;;;;;;10.71;57.01;92960.22;5112796;28;20216;-76
2023/04/08 08:50:43;;;;;;;19.70;17.80;;;;;;;9.67;60.98;92989.03;5112981;28;20220;-76
2023/04/08 08:53:08;;;;;;;21.17;17.17;;;;;;;9.86;61.66;92994.47;5115175;28;20217;-76
2023/04/08 08:55:34;;;;;;;19.97;18.17;;;;;;;10.46;58.41;92983.84;5113438;28;20262;-75
2023/04/08 08:58:01;;;;;;;20.27;18.27;;;;;;;10.06;59.15;92991.81;5113669;28;20226;-75
2023/04/08 09:00:43;;;;;;;20.00;17.27;;;;;;;10.77;58.55;92994.94;5112304;28;20291;-75
2023/04/08 09:03:18;;;;;;;20.60;17.50;;;;;;;10.70;58.67;92997.06;5113829;28;20199;-76
2023/04/08 09:05:48;;;;;;;19.67;17.77;;;;;;;11.20;56.79;92999.38;5099815;28;20232;-75
2023/04/08 09:08:22;;;;;;;19.60;17.60;;;;;;;11.38;57.58;93000.56;5093784;28;20181;-75
2023/04/08 09:10:48;;;;;;;20.23;17.20;;;;;;;11.34;57.34;92995.09;5104029;28;20270;-75
2023/04/08 09:13:13;;;;;;;21.03;19.10;;;;;;;11.52;57.99;92959.66;5114449;28;20176;-74
2023/04/08 09:16:06;;;;;;;18.83;17.03;;;;;;;12.06;56.32;92981.13;5112547;28;20244;-76
2023/04/08 09:18:32;;;;;;;19.60;17.70;;;;;;;12.35;57.31;92992.31;5112688;28;20202;-76
2023/04/08 09:21:05;;;;;;;20.03;18.13;;;;;;;12.30;55.82;92997.59;5110386;28;20232;-75
2023/04/08 09:23:38;;;;;;;21.17;19.00;;;;;;;11.83;58.24;92985.25;5113052;28;20187;-76
2023/04/08 09:26:15;;;;;;;18.73;16.97;;;;;;;11.70;57.87;92972.84;5112649;27;20240;-72
2023/04/08 09:28:42;;;;;;;15.93;14.60;;;;;;;12.34;54.82;92983.66;5112636;28;20192;-74
2023/04/08 09:31:21;;;;;;;17.63;16.03;;;;;;;12.60;55.52;92978.91;5112098;27;20228;-72
2023/04/08 09:33:48;;;;;;;16.43;14.83;;;;;;;12.93;53.48;92975.34;5111697;28;20217;-72
2023/04/08 09:36:15;;;;;;;15.30;14.10;;;;;;;12.45;53.08;92979.13;5110427;27;20222;-78
2023/04/08 09:38:40;;;;;;;17.63;15.97;;;;;;;13.05;53.27;92980.97;5112381;28;20180;-73
2023/04/08 09:41:07;;;;;;;18.27;16.53;;;;;;;12.10;54.92;92953.31;5110174;28;20287;-72
2023/04/08 09:43:40;;;;;;;21.47;17.37;;;;;;;11.77;56.64;92972.50;5111950;28;20182;-72
2023/04/08 09:46:10;;;;;;;18.33;16.63;;;;;;;11.27;57.49;92977.09;5111266;27;20229;-70
2023/04/08 09:48:45;;;;;;;18.13;16.23;;;;;;;10.99;59.24;92974.41;5111706;28;20927;-69
2023/04/08 09:51:14;;;;;;;29.27;20.33;;;;;;;10.73;60.42;92952.91;5107995;27;20332;-70
2023/04/08 09:53:46;;;;;;;23.33;19.60;;;;;;;10.62;60.81;92948.78;5110394;28;20198;-71
2023/04/08 09:56:15;;;;;;;22.70;18.53;;;;;;;10.77;61.23;92966.97;5107647;28;20300;-69
2023/04/08 09:59:09;;;;;;;20.97;18.87;;;;;;;10.60;60.29;92963.94;5110824;28;20187;-69
2023/04/08 10:01:43;;;;;;;20.35;18.25;;;;;;;10.57;61.25;92964.47;5108700;28;20371;-70
2023/04/08 10:04:13;;;;;;;20.07;18.10;;;;;;;10.33;60.82;92968.78;5109965;28;20231;-71
2023/04/08 10:06:40;;;;;;;19.33;17.27;;;;;;;10.60;60.66;92969.16;5106332;28;20224;-70
2023/04/08 10:09:06;;;;;;;21.53;18.20;;;;;;;10.76;60.31;92954.19;5110527;28;20201;-70
2023/04/08 10:11:33;;;;;;;21.27;18.97;;;;;;;10.96;59.32;92967.13;5090160;28;20288;-73
2023/04/08 10:13:59;;;;;;;21.13;19.23;;;;;;;10.71;58.82;92944.56;5087415;28;20205;-71
2023/04/08 10:16:26;;;;;;;22.00;19.63;;;;;;;10.50;61.62;92926.69;5086412;28;20234;-72
2023/04/08 10:18:55;;;;;;;20.43;18.43;;;;;;;10.93;60.60;92958.00;5089094;28;20269;-71
2023/04/08 10:21:47;;;;;;;21.50;18.77;;;;;;;11.00;59.71;92942.78;5107117;28;20222;-70
2023/04/08 10:24:12;;;;;;;24.67;20.43;;;;;;;11.28;59.92;92954.34;5108132;28;20200;-72
2023/04/08 10:26:42;;;;;;;21.53;19.27;;;;;;;11.06;60.72;92957.41;5109031;28;20216;-75
2023/04/08 10:29:17;;;;;;;22.00;19.23;;;;;;;10.89;61.44;92957.00;5109388;28;20257;-72
2023/04/08 10:31:50;;;;;;;22.00;19.63;;;;;;;10.89;61.64;92956.22;5089173;28;20287;-71
2023/04/08 10:34:18;;;;;;;22.70;20.37;;;;;;;10.71;62.91;92957.63;5088407;28;20184;-72
2023/04/08 10:36:44;;;;;;;22.53;20.07;;;;;;;11.10;61.60;92952.38;5089071;28;20232;-74
2023/04/08 10:39:12;;;;;;;23.23;18.30;;;;;;;11.25;60.47;92939.97;5089299;28;20192;-74
2023/04/08 10:41:48;;;;;;;23.07;19.23;;;;;;;11.25;62.28;92924.31;5108641;28;20224;-74
2023/04/08 10:44:18;;;;;;;22.77;19.87;;;;;;;11.91;61.03;92934.16;5109848;28;20203;-71
2023/04/08 10:46:48;;;;;;;22.20;19.90;;;;;;;12.68;60.73;92942.38;5108450;28;20231;-71
2023/04/08 10:49:14;;;;;;;20.10;18.03;;;;;;;12.70;57.30;92931.66;5109094;28;20211;-72
2023/04/08 10:51:41;;;;;;;21.50;19.07;;;;;;;13.04;55.38;92913.88;5109972;27;20220;-72
2023/04/08 10:54:15;;;;;;;20.13;17.97;;;;;;;13.40;53.84;92942.94;5109364;28;20195;-72
2023/04/08 10:56:52;;;;;;;21.00;17.97;;;;;;;13.44;53.81;92930.78;5112783;27;20231;-73
2023/04/08 10:59:29;;;;;;;20.80;17.80;;;;;;;13.46;53.16;92934.72;5107753;28;20183;-74
2023/04/08 11:01:54;;;;;;;23.77;19.77;;;;;;;13.10;54.81;92925.84;5107006;28;20235;-72
2023/04/08 11:04:22;;;;;;;24.13;18.90;;;;;;;12.63;56.08;92933.81;5108771;28;20198;-73
2023/04/08 11:06:48;;;;;;;24.03;18.70;;;;;;;12.37;55.93;92938.59;5110060;27;20260;-71
2023/04/08 11:09:15;;;;;;;21.80;18.10;;;;;;;12.67;55.83;92934.81;5109318;28;20199;-72
2023/04/08 11:11:45;;;;;;;26.90;20.40;;;;;;;12.75;55.32;92928.94;5108802;28;20249;-72
2023/04/08 11:14:11;;;;;;;28.23;20.90;;;;;;;12.79;54.92;92914.22;5109858;28;20202;-72
2023/04/08 11:16:38;;;;;;;25.03;17.33;;;;;;;12.89;54.47;92932.41;5109640;28;20231;-72
2023/04/08 11:19:05;;;;;;;24.60;18.37;;;;;;;12.34;56.04;92922.69;5108476;28;20205;-71
2023/04/08 11:21:34;;;;;;;20.20;18.03;;;;;;;12.79;54.76;92922.09;5090708;28;20278;-71